Latest Weather Observations for Learmonth

IDW60801

Issued at 12:02 pm WST Wednesday 1 April 2015 (issued every 30 minutes, with the page automatically refreshed every 10 minutes)

About weather observations | Map of weather stations | Latest weather observations for WA | Other Formats
Station Details ID: 005007 Name: LEARMONTH AIRPORT Lat: -22.24 Lon: 114.10 Height: 5.0 m
Data from the previous 72 hours. | See also: Recent months at Learmonth
Date/Time
WST
Temp
°C
App
Temp
°C
Dew
Point
Rel
Hum
%
Delta-T
°C
Wind Press
QNH
hPa
Press
MSL
hPa
Rain
since 9 am
mm
Dir
 
Spd
km/h
Gust
km/h
Spd
kts
Gust
kts
01/11:30am 29.0 30.4 21.9 65 4.8 E 17 22 9 12 1014.8 - 0.0
01/11:00am 29.0 29.9 20.9 61 5.4 ESE 17 20 9 11 1015.0 - 0.0
01/10:30am 28.5 29.6 21.3 65 4.8 SE 17 20 9 11 1015.2 - 0.0
01/10:00am 28.1 28.7 21.0 65 4.7 SE 19 22 10 12 1015.4 - 0.0
01/09:30am 27.5 27.7 20.2 64 4.8 SSE 19 22 10 12 1015.6 - 0.0
01/09:00am 26.8 27.4 20.2 67 4.3 S 17 22 9 12 1015.7 1015.6 0.0
01/08:00am 23.4 23.6 20.6 84 1.8 S 20 28 11 15 1015.4 - 0.0
01/07:30am 22.3 23.5 20.6 90 1.1 SSW 15 20 8 11 1015.5 - 0.0
01/07:00am 21.2 22.6 20.3 95 0.6 SSW 13 17 7 9 1015.2 - 0.0
01/06:30am 20.9 22.1 20.0 95 0.6 SSW 13 17 7 9 1015.0 - 0.0
01/06:00am 21.2 22.5 20.1 93 0.7 SSW 13 17 7 9 1014.8 1014.7 0.0
01/05:30am 20.9 22.1 20.0 95 0.6 SSW 13 17 7 9 1014.6 - 0.0
01/05:00am 20.9 22.1 20.0 95 0.6 SW 13 17 7 9 1014.5 - 0.0
01/04:30am 21.0 22.7 20.1 95 0.6 SSW 11 15 6 8 1014.3 - 0.0
01/04:00am 21.2 22.5 20.1 93 0.7 SSW 13 17 7 9 1014.3 - 0.0
01/03:30am 21.4 22.7 20.2 93 0.8 SSW 13 17 7 9 1014.2 - 0.0
01/03:00am 21.6 23.0 20.4 93 0.8 SSW 13 17 7 9 1014.2 1014.1 0.0
01/02:30am 21.8 22.5 20.4 92 0.9 SSW 17 20 9 11 1014.2 - 0.0
01/02:00am 21.9 23.1 20.7 93 0.8 SSW 15 19 8 10 1014.3 - 0.0
01/01:30am 22.0 22.8 20.6 92 0.9 SSW 17 20 9 11 1014.5 - 0.0
01/01:00am 22.1 23.3 20.7 92 0.9 SSW 15 19 8 10 1014.6 - 0.0
01/12:30am 22.3 23.6 20.9 92 0.9 SSW 15 17 8 9 1014.8 - 0.0
01/12:00am 22.8 23.8 21.1 90 1.1 SSW 17 24 9 13 1014.8 1014.7 0.0
 
Date/Time
WST
Temp
°C
App
Temp
°C
Dew
Point
Rel
Hum
%
Delta-T
°C
Wind Press
QNH
hPa
Press
MSL
hPa
Rain
since 9 am
mm
Dir
 
Spd
km/h
Gust
km/h
Spd
kts
Gust
kts
31/11:30pm 23.1 24.4 21.6 91 1.0 SSW 17 20 9 11 1014.9 - 0.0
31/11:00pm 23.6 24.6 21.8 90 1.2 SSW 19 22 10 12 1015.1 - 0.0
31/10:30pm 23.8 25.4 22.1 90 1.1 SSW 17 20 9 11 1015.3 - 0.0
31/10:00pm 23.8 25.4 22.1 90 1.1 SSW 17 20 9 11 1015.2 - 0.0
31/09:30pm 23.9 25.6 22.3 91 1.1 SSW 17 22 9 12 1015.1 - 0.0
31/09:00pm 24.1 25.3 22.1 88 1.3 SW 19 22 10 12 1015.2 1015.1 0.0
31/08:30pm 24.1 25.3 22.1 88 1.3 SW 19 24 10 13 1014.8 - 0.0
31/08:00pm 24.2 25.4 22.1 88 1.4 SSW 19 22 10 12 1014.5 - 0.0
31/07:30pm 24.6 25.6 21.7 84 1.9 SSW 19 24 10 13 1014.1 - 0.0
31/07:00pm 25.3 26.6 21.7 80 2.4 SSW 17 20 9 11 1013.9 - 0.0
31/06:30pm 26.1 27.3 20.6 71 3.6 S 15 19 8 10 1013.5 - 0.0
31/06:00pm 27.6 27.8 20.1 63 4.9 SSE 19 26 10 14 1013.1 1013.0 0.0
31/05:30pm 28.3 28.0 20.4 62 5.2 SSE 22 30 12 16 1012.7 - 0.0
31/05:00pm 28.5 27.7 20.1 60 5.5 SSE 24 33 13 18 1012.7 - 0.0
31/04:30pm 29.5 28.9 20.4 58 6.0 SSE 24 33 13 18 1012.5 - 0.0
31/04:00pm 29.4 29.5 20.3 58 6.0 S 20 33 11 18 1012.4 - 0.0
31/03:30pm 29.3 28.7 19.8 56 6.2 S 22 30 12 16 1012.4 - 0.0
31/03:00pm 29.8 30.0 20.6 57 6.1 SSW 20 30 11 16 1012.5 1012.4 0.0
31/02:30pm 29.9 29.3 20.5 57 6.2 S 24 32 13 17 1012.6 - 0.0
31/02:00pm 29.4 30.0 21.3 61 5.4 S 20 28 11 15 1013.0 - 0.0
31/01:30pm 28.7 28.7 21.0 63 5.1 S 22 32 12 17 1013.1 - 0.0
31/01:00pm 28.1 28.1 21.7 68 4.3 SSW 24 33 13 18 1013.4 - 0.0
31/12:30pm 27.6 28.4 21.8 70 3.9 S 20 24 11 13 1013.7 - 0.0
31/12:00pm 26.0 27.0 22.1 79 2.6 SSW 20 28 11 15 1014.3 1014.2 0.0
31/11:30am 26.1 27.3 22.5 80 2.4 SSW 20 26 11 14 1014.8 - 0.0
31/11:00am 25.5 27.1 22.1 81 2.3 S 17 26 9 14 1015.0 - 0.0
31/10:30am 25.0 26.7 22.3 85 1.8 S 17 24 9 13 1015.0 - 0.0
31/10:00am 24.3 25.5 22.2 88 1.4 SSW 19 26 10 14 1015.1 - 0.0
31/09:30am 24.4 25.6 22.5 89 1.3 S 20 24 11 13 1015.2 - 0.0
31/09:00am 24.1 25.8 22.3 90 1.2 S 17 20 9 11 1014.9 1014.8 27.0
31/08:30am 23.2 24.8 22.1 93 0.7 S 17 20 9 11 1014.7 - 27.0
31/08:00am 22.4 23.3 21.5 95 0.6 S 19 22 10 12 1014.4 - 27.0
31/07:30am 22.3 23.5 21.4 95 0.6 SSW 17 20 9 11 1014.0 - 27.0
31/07:00am 22.2 23.9 21.6 96 0.4 S 15 19 8 10 1013.9 - 27.0
31/06:30am 22.2 24.1 21.4 95 0.5 SSW 13 17 7 9 1013.6 - 27.0
31/06:00am 23.3 25.1 21.9 92 0.9 ENE 15 17 8 9 1013.3 1012.4 27.0
31/05:34am 22.6 25.5 21.8 95 0.5 SW 9 11 5 6 1013.1 - 27.0
31/05:30am 22.6 25.1 21.8 95 0.5 SW 11 13 6 7 1013.0 - 27.0
31/05:00am 23.9 26.4 22.4 91 1.0 E 13 19 7 10 1012.8 - 27.0
31/04:30am 24.0 25.6 22.2 90 1.2 E 17 20 9 11 1012.6 - 27.0
31/04:00am 24.2 25.4 22.1 88 1.4 E 19 22 10 12 1012.4 - 27.0
31/03:30am 23.5 26.6 22.1 92 0.9 ENE 9 15 5 8 1012.3 - 27.0
31/03:00am 23.3 25.1 21.9 92 0.9 ENE 15 19 8 10 1012.5 1012.4 27.0
31/02:30am 23.1 25.1 21.6 91 1.0 ENE 13 19 7 10 1012.6 - 27.0
31/02:00am 22.9 24.8 21.4 91 1.0 ENE 13 17 7 9 1012.8 - 27.0
31/01:53am 22.8 24.8 21.6 93 0.8 ENE 13 17 7 9 1012.9 - 27.0
31/01:30am 22.9 25.0 21.7 93 0.8 E 13 17 7 9 1013.1 - 27.0
31/01:04am 22.6 25.5 21.7 95 0.6 ESE 9 15 5 8 1013.2 - 27.0
31/01:00am 22.6 25.0 21.5 93 0.7 ESE 11 15 6 8 1013.2 - 27.0
31/12:30am 22.0 25.6 21.2 95 0.5 ESE 4 11 2 6 1013.5 - 27.0
31/12:00am 21.8 25.4 21.2 96 0.4 S 4 7 2 4 1013.5 1013.4 27.0
 
Date/Time
WST
Temp
°C
App
Temp
°C
Dew
Point
Rel
Hum
%
Delta-T
°C
Wind Press
QNH
hPa
Press
MSL
hPa
Rain
since 9 am
mm
Dir
 
Spd
km/h
Gust
km/h
Spd
kts
Gust
kts
30/11:30pm 22.2 24.9 21.4 95 0.5 SE 9 13 5 7 1013.9 - 27.0
30/11:00pm 22.3 23.4 21.2 93 0.7 SE 17 20 9 11 1014.3 - 27.0
30/10:30pm 22.3 22.9 21.4 95 0.6 SSE 20 30 11 16 1014.7 - 27.0
30/10:00pm 22.3 22.4 21.2 93 0.7 SSE 22 30 12 16 1014.7 - 27.0
30/09:30pm 22.3 22.8 21.2 93 0.7 SSE 20 28 11 15 1014.7 - 27.0
30/09:00pm 22.4 22.2 21.3 93 0.7 SSE 24 32 13 17 1014.6 1014.5 27.0
30/08:30pm 22.6 22.6 21.7 95 0.6 SSE 24 32 13 17 1014.9 - 26.8
30/08:00pm 22.8 21.5 21.4 92 0.9 SE 30 37 16 20 1015.0 - 26.8
30/07:30pm 22.7 22.4 21.9 95 0.5 SSE 26 33 14 18 1014.9 - 26.8
30/07:15pm 22.7 22.4 21.9 95 0.5 SE 26 33 14 18 1014.6 - 26.8
30/07:00pm 22.8 22.2 21.9 95 0.6 SE 28 35 15 19 1014.3 - 26.8
30/06:30pm 23.0 23.6 22.1 95 0.6 SE 22 32 12 17 1014.1 - 26.4
30/06:00pm 23.3 23.0 21.9 92 0.9 SE 26 32 14 17 1013.5 1013.4 25.0
30/05:57pm 23.3 23.1 22.1 93 0.8 SE 26 35 14 19 1013.5 - 25.0
30/05:30pm 23.5 22.7 22.3 93 0.8 SE 30 41 16 22 1013.2 - 25.0
30/05:05pm 23.4 22.1 22.5 95 0.6 SE 33 43 18 23 1012.7 - 25.0
30/05:00pm 23.3 21.4 22.1 93 0.8 SE 35 44 19 24 1012.5 - 25.0
30/04:30pm 23.4 22.8 22.7 96 0.5 SSE 30 39 16 21 1012.5 - 24.8
30/04:19pm 23.4 22.3 22.4 94 0.7 SSE 32 41 17 22 1012.6 - 24.6
30/04:00pm 23.4 21.7 22.5 95 0.6 SE 35 46 19 25 1012.1 - 24.6
30/03:30pm 23.3 22.7 22.7 96 0.4 SSE 30 39 16 21 1012.0 - 24.6
30/03:08pm 23.0 22.2 22.4 96 0.4 SSE 30 39 16 21 1012.2 - 24.2
30/03:00pm 23.1 22.8 22.5 96 0.4 S 28 41 15 22 1012.7 1012.6 24.0
30/02:35pm 23.0 22.7 22.6 98 0.3 SSE 28 46 15 25 1011.9 - 23.2
30/02:30pm 23.1 23.5 22.5 96 0.4 SSE 24 33 13 18 1012.5 - 22.4
30/02:00pm 22.9 23.3 22.5 98 0.3 S 24 30 13 16 1012.5 - 19.4
30/01:30pm 22.6 23.3 22.3 98 0.2 S 22 30 12 16 1013.3 - 16.0
30/01:00pm 22.7 23.0 22.2 97 0.3 S 24 30 13 16 1013.7 - 12.6
30/12:30pm 22.9 24.1 22.5 98 0.3 S 20 28 11 15 1014.0 - 10.4
30/12:16pm 22.9 24.0 22.3 96 0.4 SSE 20 28 11 15 1014.2 - 9.4
30/12:00pm 23.0 24.1 22.4 96 0.4 SSE 20 26 11 14 1014.6 1014.5 8.2
30/11:30am 23.2 22.5 22.5 96 0.5 SSE 30 35 16 19 1014.5 - 7.2
30/11:24am 23.3 23.4 22.6 96 0.5 SE 26 35 14 19 1014.8 - 6.0
30/11:00am 23.7 23.5 22.7 94 0.7 SSE 28 33 15 18 1015.1 - 3.4
30/10:30am 23.9 24.4 22.7 93 0.8 SE 24 30 13 16 1015.2 - 3.2
30/10:14am 24.5 27.2 22.9 91 1.1 SE 13 17 7 9 1014.9 - 3.2
30/10:00am 24.2 27.5 22.6 91 1.1 E 9 13 5 7 1015.1 - 2.8
30/09:30am 24.0 27.3 22.5 91 1.0 NE 9 15 5 8 1015.3 - 1.0
30/09:24am 24.0 26.7 22.2 90 1.2 ENE 11 17 6 9 1015.1 - 0.4
30/09:00am 24.0 26.0 21.6 86 1.6 NE 13 17 7 9 1015.1 1015.0 16.8
30/08:30am 23.1 25.3 21.9 93 0.8 NNE 13 19 7 10 1015.2 - 16.8
30/08:16am 23.0 24.0 22.2 95 0.5 NE 20 32 11 17 1014.6 - 16.8
30/08:00am 24.1 25.1 22.9 93 0.8 ENE 22 39 12 21 1014.6 - 8.0
30/07:52am 24.9 26.2 22.4 86 1.7 NE 19 26 10 14 1014.5 - 1.2
30/07:30am 24.8 25.7 21.9 84 1.9 S 20 26 11 14 1013.4 - 0.6
30/07:00am 24.8 25.1 21.5 82 2.2 SSE 22 28 12 15 1013.3 - 0.6
30/06:30am 24.8 26.7 22.7 88 1.4 SE 17 24 9 13 1012.9 - 0.6
30/06:00am 24.6 27.8 23.1 91 1.0 SSE 11 15 6 8 1012.3 1012.2 0.6
30/05:30am 24.6 28.6 23.1 91 1.0 SSW 7 9 4 5 1012.0 - 0.6
30/05:00am 24.5 28.4 22.9 91 1.1 WSW 7 11 4 6 1011.6 - 0.6
30/04:30am 24.2 26.8 22.6 91 1.1 WSW 13 15 7 8 1011.1 - 0.6
30/04:00am 24.1 27.3 22.3 90 1.2 S 9 17 5 9 1011.1 - 0.6
30/03:30am 24.7 25.7 21.1 80 2.4 NNE 17 24 9 13 1011.7 - 0.4
30/03:00am 26.7 25.4 20.6 69 4.0 ENE 28 35 15 19 1012.2 1012.1 0.0
30/02:30am 26.4 25.7 21.1 72 3.5 ENE 26 35 14 19 1012.4 - 0.0
30/02:00am 26.7 27.2 20.8 70 3.9 NE 19 32 10 17 1012.6 - 0.0
30/01:30am 26.4 26.3 20.8 71 3.7 NE 22 28 12 15 1012.8 - 0.0
30/01:00am 27.6 26.3 19.8 62 5.1 NE 26 35 14 19 1013.0 - 0.0
30/12:30am 27.9 27.7 20.6 64 4.8 NE 22 30 12 16 1013.3 - 0.0
30/12:00am 28.3 28.8 21.1 65 4.8 NE 20 28 11 15 1013.5 1013.4 0.0
 
Date/Time
WST
Temp
°C
App
Temp
°C
Dew
Point
Rel
Hum
%
Delta-T
°C
Wind Press
QNH
hPa
Press
MSL
hPa
Rain
since 9 am
mm
Dir
 
Spd
km/h
Gust
km/h
Spd
kts
Gust
kts
29/11:30pm 28.6 29.0 21.7 66 4.6 NNE 22 30 12 16 1013.6 - 0.0
29/11:00pm 29.0 28.6 20.9 61 5.4 NE 24 30 13 16 1013.8 - 0.0
29/10:30pm 28.3 30.8 22.4 70 4.0 N 13 15 7 8 1013.8 - 0.0
29/10:00pm 27.8 30.5 21.3 67 4.3 N 9 11 5 6 1013.7 - 0.0
29/09:30pm 27.6 29.8 21.1 67 4.3 NNE 11 13 6 7 1013.9 - 0.0
29/09:00pm 27.6 30.6 19.2 60 5.4 SW 2 7 1 4 1013.5 1013.4 0.0
29/08:30pm 28.0 30.3 19.4 59 5.6 SW 6 9 3 5 1013.2 - 0.0
29/08:00pm 28.7 29.8 18.9 55 6.3 W 11 15 6 8 1012.8 - 0.0
29/07:30pm 28.7 29.7 20.2 60 5.6 SW 15 17 8 9 1012.4 - 0.0
29/07:00pm 28.9 31.7 21.6 64 4.9 W 9 11 5 6 1011.8 - 0.0
29/06:30pm 29.0 32.3 21.9 65 4.8 NNW 7 9 4 5 1011.6 - 0.0
29/06:00pm 30.1 33.1 20.8 57 6.2 NNE 6 7 3 4 1011.2 1011.1 0.0
29/05:30pm 30.8 33.1 19.9 52 7.2 N 7 9 4 5 1011.2 - 0.0
29/05:00pm 31.7 33.2 18.8 46 8.4 N 9 11 5 6 1011.0 - 0.0
29/04:30pm 31.7 31.6 17.0 41 9.3 NNE 13 17 7 9 1010.7 - 0.0
29/04:00pm 33.4 34.0 17.7 39 10.1 N 11 17 6 9 1010.8 - 0.0
29/03:30pm 33.7 35.2 17.5 38 10.4 NNW 6 13 3 7 1010.9 - 0.0
29/03:00pm 33.0 33.5 17.4 39 10.0 N 11 13 6 7 1011.0 1010.9 0.0
29/02:30pm 32.7 33.3 17.8 41 9.6 N 11 15 6 8 1011.4 - 0.0
29/02:00pm 32.3 33.4 18.0 42 9.2 N 9 13 5 7 1011.5 - 0.0
29/01:30pm 32.2 33.1 17.5 41 9.4 NNE 9 13 5 7 1011.9 - 0.0
29/01:00pm 31.8 33.6 18.3 44 8.7 N 6 11 3 6 1012.2 - 0.0
29/12:30pm 31.2 34.5 19.1 48 7.9 CALM 0 0 0 0 1012.3 - 0.0

Other Formats:

Comma delimited format used in spreadsheet applications
http://www.bom.gov.au/fwo/IDW60801/IDW60801.94302.axf

JavaScript Object Notation format (JSON) in row-major order
http://www.bom.gov.au/fwo/IDW60801/IDW60801.94302.json